sensor_id;sensor_type;location;lat;lon;timestamp;pressure;altitude;pressure_sealevel;temperature;humidity
27864;BME280;15980;51.092;13.916;2023-04-28T00:01:00;98976.59;;;3.38;75.84
27864;BME280;15980;51.092;13.916;2023-04-28T00:11:00;98957.72;;;3.28;77.06
27864;BME280;15980;51.092;13.916;2023-04-28T00:21:00;98955.06;;;3.23;78.65
27864;BME280;15980;51.092;13.916;2023-04-28T00:31:01;98946.69;;;3.19;78.21
27864;BME280;15980;51.092;13.916;2023-04-28T00:41:01;98939.31;;;3.25;78.22
27864;BME280;15980;51.092;13.916;2023-04-28T00:51:02;98915.72;;;3.25;78.24
27864;BME280;15980;51.092;13.916;2023-04-28T01:01:06;98899.22;;;3.22;79.22
27864;BME280;15980;51.092;13.916;2023-04-28T01:11:07;98893.44;;;3.04;78.95
27864;BME280;15980;51.092;13.916;2023-04-28T01:21:07;98884.16;;;3.10;78.67
27864;BME280;15980;51.092;13.916;2023-04-28T01:31:08;98886.22;;;3.19;78.39
27864;BME280;15980;51.092;13.916;2023-04-28T01:41:08;98870.78;;;3.19;78.07
27864;BME280;15980;51.092;13.916;2023-04-28T01:51:08;98857.91;;;3.06;79.20
27864;BME280;15980;51.092;13.916;2023-04-28T02:01:08;98844.91;;;3.03;79.57
27864;BME280;15980;51.092;13.916;2023-04-28T02:11:09;98837.25;;;3.10;79.15
27864;BME280;15980;51.092;13.916;2023-04-28T02:21:10;98834.09;;;3.27;78.62
27864;BME280;15980;51.092;13.916;2023-04-28T02:31:11;98828.66;;;3.51;78.29
27864;BME280;15980;51.092;13.916;2023-04-28T02:41:11;98820.38;;;3.61;77.25
27864;BME280;15980;51.092;13.916;2023-04-28T02:51:11;98819.72;;;3.69;76.91
27864;BME280;15980;51.092;13.916;2023-04-28T03:01:11;98806.53;;;3.81;75.60
27864;BME280;15980;51.092;13.916;2023-04-28T03:11:12;98804.41;;;3.97;75.33
27864;BME280;15980;51.092;13.916;2023-04-28T03:21:12;98794.06;;;3.99;74.71
27864;BME280;15980;51.092;13.916;2023-04-28T03:31:12;98776.50;;;4.10;74.55
27864;BME280;15980;51.092;13.916;2023-04-28T03:41:12;98768.69;;;4.22;73.63
27864;BME280;15980;51.092;13.916;2023-04-28T03:51:13;98762.59;;;4.30;74.24
27864;BME280;15980;51.092;13.916;2023-04-28T04:01:13;98757.97;;;4.31;73.99
27864;BME280;15980;51.092;13.916;2023-04-28T04:11:13;98760.16;;;4.75;72.93
27864;BME280;15980;51.092;13.916;2023-04-28T04:21:14;98745.28;;;5.00;73.90
27864;BME280;15980;51.092;13.916;2023-04-28T04:31:14;98733.22;;;4.92;74.36
27864;BME280;15980;51.092;13.916;2023-04-28T04:41:14;98725.38;;;5.54;73.18
27864;BME280;15980;51.092;13.916;2023-04-28T04:51:15;98721.44;;;6.50;68.53
27864;BME280;15980;51.092;13.916;2023-04-28T05:01:15;98711.97;;;7.35;64.06
27864;BME280;15980;51.092;13.916;2023-04-28T05:11:15;98713.16;;;7.95;61.72
27864;BME280;15980;51.092;13.916;2023-04-28T05:21:15;98706.16;;;8.58;60.19
27864;BME280;15980;51.092;13.916;2023-04-28T05:31:16;98684.22;;;9.13;58.58
27864;BME280;15980;51.092;13.916;2023-04-28T05:41:16;98677.91;;;9.63;56.44
27864;BME280;15980;51.092;13.916;2023-04-28T05:51:16;98668.84;;;10.37;53.67
27864;BME280;15980;51.092;13.916;2023-04-28T06:01:17;98681.28;;;11.04;53.38
27864;BME280;15980;51.092;13.916;2023-04-28T06:11:17;98678.84;;;10.54;53.97
27864;BME280;15980;51.092;13.916;2023-04-28T06:21:17;98678.28;;;10.48;54.23
27864;BME280;15980;51.092;13.916;2023-04-28T06:31:18;98667.56;;;11.04;53.09
27864;BME280;15980;51.092;13.916;2023-04-28T06:41:18;98658.41;;;11.77;50.21
27864;BME280;15980;51.092;13.916;2023-04-28T06:51:18;98659.72;;;12.23;49.67
27864;BME280;15980;51.092;13.916;2023-04-28T07:01:18;98652.38;;;12.27;48.24
27864;BME280;15980;51.092;13.916;2023-04-28T07:11:20;98638.69;;;12.31;50.04
27864;BME280;15980;51.092;13.916;2023-04-28T07:21:20;98619.72;;;12.57;50.59
27864;BME280;15980;51.092;13.916;2023-04-28T07:31:21;98618.16;;;13.23;48.59
27864;BME280;15980;51.092;13.916;2023-04-28T07:41:21;98600.88;;;13.61;46.74
27864;BME280;15980;51.092;13.916;2023-04-28T07:51:21;98596.41;;;14.14;46.38
27864;BME280;15980;51.092;13.916;2023-04-28T08:01:21;98588.22;;;14.63;45.25
27864;BME280;15980;51.092;13.916;2023-04-28T08:11:22;98580.72;;;15.43;43.93
27864;BME280;15980;51.092;13.916;2023-04-28T08:21:22;98570.72;;;15.05;43.77
27864;BME280;15980;51.092;13.916;2023-04-28T08:31:22;98568.84;;;15.39;43.81
27864;BME280;15980;51.092;13.916;2023-04-28T08:41:23;98568.75;;;15.32;44.44
27864;BME280;15980;51.092;13.916;2023-04-28T08:51:33;98571.75;;;16.17;43.47
27864;BME280;15980;51.092;13.916;2023-04-28T09:01:34;98549.78;;;16.82;43.46
27864;BME280;15980;51.092;13.916;2023-04-28T09:11:35;98539.63;;;17.01;42.88
27864;BME280;15980;51.092;13.916;2023-04-28T09:21:52;98541.44;;;17.44;41.98
27864;BME280;15980;51.092;13.916;2023-04-28T09:31:53;98540.06;;;18.14;40.80
27864;BME280;15980;51.092;13.916;2023-04-28T09:41:53;98536.91;;;18.09;39.77
27864;BME280;15980;51.092;13.916;2023-04-28T09:52:11;98524.19;;;19.07;38.45
27864;BME280;15980;51.092;13.916;2023-04-28T10:02:12;98525.44;;;18.53;40.17
27864;BME280;15980;51.092;13.916;2023-04-28T10:12:13;98525.81;;;18.51;40.47
27864;BME280;15980;51.092;13.916;2023-04-28T10:32:34;98511.50;;;17.02;44.93
27864;BME280;15980;51.092;13.916;2023-04-28T10:42:55;98523.34;;;16.95;44.85
27864;BME280;15980;51.092;13.916;2023-04-28T10:52:56;98506.63;;;16.81;45.37
27864;BME280;15980;51.092;13.916;2023-04-28T11:02:56;98532.16;;;16.57;47.05
27864;BME280;15980;51.092;13.916;2023-04-28T11:13:25;98551.72;;;15.60;55.36
27864;BME280;15980;51.092;13.916;2023-04-28T11:23:27;98539.41;;;15.24;59.12
27864;BME280;15980;51.092;13.916;2023-04-28T11:33:27;98545.50;;;16.03;58.82
27864;BME280;15980;51.092;13.916;2023-04-28T11:43:30;98540.00;;;16.48;58.07
27864;BME280;15980;51.092;13.916;2023-04-28T11:53:44;98535.69;;;16.54;55.29
27864;BME280;15980;51.092;13.916;2023-04-28T12:03:45;98533.31;;;17.07;56.52
27864;BME280;15980;51.092;13.916;2023-04-28T12:14:02;98519.13;;;17.19;52.03
27864;BME280;15980;51.092;13.916;2023-04-28T12:24:19;98510.25;;;17.76;51.33
27864;BME280;15980;51.092;13.916;2023-04-28T12:34:19;98520.22;;;17.98;49.36
27864;BME280;15980;51.092;13.916;2023-04-28T12:44:20;98516.25;;;18.03;49.64
27864;BME280;15980;51.092;13.916;2023-04-28T12:54:21;98505.41;;;17.51;49.89
27864;BME280;15980;51.092;13.916;2023-04-28T13:04:21;98497.47;;;17.46;48.96
27864;BME280;15980;51.092;13.916;2023-04-28T13:14:21;98488.19;;;17.10;53.55
27864;BME280;15980;51.092;13.916;2023-04-28T13:24:22;98473.16;;;16.53;54.45
27864;BME280;15980;51.092;13.916;2023-04-28T13:34:22;98473.53;;;16.48;55.39
27864;BME280;15980;51.092;13.916;2023-04-28T13:44:22;98467.44;;;16.28;56.02
27864;BME280;15980;51.092;13.916;2023-04-28T13:54:22;98446.91;;;16.36;59.00
27864;BME280;15980;51.092;13.916;2023-04-28T14:04:23;98419.66;;;16.42;60.16
27864;BME280;15980;51.092;13.916;2023-04-28T14:14:23;98410.28;;;16.57;59.58
27864;BME280;15980;51.092;13.916;2023-04-28T14:24:23;98405.34;;;16.29;58.59
27864;BME280;15980;51.092;13.916;2023-04-28T14:34:24;98393.84;;;15.72;60.96
27864;BME280;15980;51.092;13.916;2023-04-28T14:44:24;98405.69;;;15.02;60.88
27864;BME280;15980;51.092;13.916;2023-04-28T14:54:24;98386.94;;;14.55;62.54
27864;BME280;15980;51.092;13.916;2023-04-28T15:04:25;98371.13;;;14.52;64.31
27864;BME280;15980;51.092;13.916;2023-04-28T15:14:25;98362.25;;;14.39;65.27
27864;BME280;15980;51.092;13.916;2023-04-28T15:24:25;98359.69;;;14.53;65.68
27864;BME280;15980;51.092;13.916;2023-04-28T15:34:25;98359.28;;;14.51;64.96
27864;BME280;15980;51.092;13.916;2023-04-28T15:44:26;98345.94;;;14.30;64.03
27864;BME280;15980;51.092;13.916;2023-04-28T15:54:27;98343.03;;;14.20;64.02
27864;BME280;15980;51.092;13.916;2023-04-28T16:04:28;98339.38;;;14.12;63.89
27864;BME280;15980;51.092;13.916;2023-04-28T16:14:28;98337.41;;;13.86;66.18
27864;BME280;15980;51.092;13.916;2023-04-28T16:24:28;98322.66;;;13.48;67.05
27864;BME280;15980;51.092;13.916;2023-04-28T16:34:28;98318.66;;;13.23;67.89
27864;BME280;15980;51.092;13.916;2023-04-28T16:44:29;98317.38;;;12.98;69.12
27864;BME280;15980;51.092;13.916;2023-04-28T16:54:31;98305.59;;;12.78;69.40
27864;BME280;15980;51.092;13.916;2023-04-28T17:04:32;98297.69;;;12.57;71.16
27864;BME280;15980;51.092;13.916;2023-04-28T17:14:32;98291.84;;;12.39;72.61
27864;BME280;15980;51.092;13.916;2023-04-28T17:24:32;98285.03;;;12.33;74.23
27864;BME280;15980;51.092;13.916;2023-04-28T17:34:32;98284.47;;;12.24;74.16
27864;BME280;15980;51.092;13.916;2023-04-28T17:44:33;98278.81;;;12.17;73.80
27864;BME280;15980;51.092;13.916;2023-04-28T17:54:33;98269.56;;;12.25;73.62
27864;BME280;15980;51.092;13.916;2023-04-28T18:04:33;98272.09;;;12.14;73.53
27864;BME280;15980;51.092;13.916;2023-04-28T18:14:34;98269.09;;;12.04;73.01
27864;BME280;15980;51.092;13.916;2023-04-28T18:24:34;98282.31;;;11.98;73.01
27864;BME280;15980;51.092;13.916;2023-04-28T18:34:34;98273.19;;;11.94;73.57
27864;BME280;15980;51.092;13.916;2023-04-28T18:44:34;98275.94;;;11.94;73.69
27864;BME280;15980;51.092;13.916;2023-04-28T18:54:35;98282.25;;;11.94;73.78
27864;BME280;15980;51.092;13.916;2023-04-28T19:04:35;98287.50;;;11.84;73.97
27864;BME280;15980;51.092;13.916;2023-04-28T19:14:35;98293.88;;;11.88;74.02
27864;BME280;15980;51.092;13.916;2023-04-28T19:24:35;98285.34;;;11.93;73.86
27864;BME280;15980;51.092;13.916;2023-04-28T19:34:36;98288.31;;;11.84;74.21
27864;BME280;15980;51.092;13.916;2023-04-28T19:44:36;98281.66;;;11.85;74.40
27864;BME280;15980;51.092;13.916;2023-04-28T19:54:37;98278.47;;;11.83;75.17
27864;BME280;15980;51.092;13.916;2023-04-28T20:04:37;98265.81;;;11.79;75.74
27864;BME280;15980;51.092;13.916;2023-04-28T20:14:38;98255.84;;;11.74;76.20
27864;BME280;15980;51.092;13.916;2023-04-28T20:24:38;98246.19;;;11.64;76.53
27864;BME280;15980;51.092;13.916;2023-04-28T20:34:38;98229.63;;;11.61;76.75
27864;BME280;15980;51.092;13.916;2023-04-28T20:44:39;98226.59;;;11.66;77.25
27864;BME280;15980;51.092;13.916;2023-04-28T20:54:39;98206.78;;;11.57;77.99
27864;BME280;15980;51.092;13.916;2023-04-28T21:04:39;98203.47;;;11.32;78.53
27864;BME280;15980;51.092;13.916;2023-04-28T21:14:39;98216.75;;;11.14;79.55
27864;BME280;15980;51.092;13.916;2023-04-28T21:24:40;98218.78;;;11.17;80.05
27864;BME280;15980;51.092;13.916;2023-04-28T21:34:40;98209.22;;;11.27;79.96
27864;BME280;15980;51.092;13.916;2023-04-28T21:44:40;98209.56;;;11.41;79.83
27864;BME280;15980;51.092;13.916;2023-04-28T21:54:40;98206.78;;;11.57;79.64
27864;BME280;15980;51.092;13.916;2023-04-28T22:04:41;98216.31;;;11.63;79.85
27864;BME280;15980;51.092;13.916;2023-04-28T22:14:41;98207.09;;;11.71;79.68
27864;BME280;15980;51.092;13.916;2023-04-28T22:24:41;98195.31;;;11.71;79.78
27864;BME280;15980;51.092;13.916;2023-04-28T22:34:42;98185.13;;;11.71;80.42
27864;BME280;15980;51.092;13.916;2023-04-28T22:44:42;98168.63;;;11.71;80.67
27864;BME280;15980;51.092;13.916;2023-04-28T22:54:42;98185.13;;;11.71;80.85
27864;BME280;15980;51.092;13.916;2023-04-28T23:04:43;98179.69;;;11.75;82.70
27864;BME280;15980;51.092;13.916;2023-04-28T23:14:43;98182.56;;;11.62;85.67
27864;BME280;15980;51.092;13.916;2023-04-28T23:24:43;98152.75;;;11.45;87.79
27864;BME280;15980;51.092;13.916;2023-04-28T23:34:44;98149.13;;;11.41;88.97
27864;BME280;15980;51.092;13.916;2023-04-28T23:44:44;98131.63;;;11.30;89.63
27864;BME280;15980;51.092;13.916;2023-04-28T23:54:44;98122.16;;;11.27;90.51
